sensor_id;sensor_type;location;lat;lon;timestamp;pressure;altitude;pressure_sealevel;temperature;humidity
41636;BME280;27623;51.966;4.602;2023-03-25T00:00:15;64294.50;;;10.42;89.68
41636;BME280;27623;51.966;4.602;2023-03-25T00:02:43;64302.31;;;10.52;89.75
41636;BME280;27623;51.966;4.602;2023-03-25T00:05:10;64285.78;;;10.41;90.52
41636;BME280;27623;51.966;4.602;2023-03-25T00:07:37;64281.41;;;10.51;90.08
41636;BME280;27623;51.966;4.602;2023-03-25T00:10:02;64298.88;;;10.53;89.96
41636;BME280;27623;51.966;4.602;2023-03-25T00:12:28;64313.56;;;10.60;89.72
41636;BME280;27623;51.966;4.602;2023-03-25T00:14:54;64289.41;;;10.49;89.47
41636;BME280;27623;51.966;4.602;2023-03-25T00:17:23;64294.13;;;10.58;89.08
41636;BME280;27623;51.966;4.602;2023-03-25T00:19:54;64313.59;;;10.53;89.10
41636;BME280;27623;51.966;4.602;2023-03-25T00:22:20;64299.44;;;10.40;89.70
41636;BME280;27623;51.966;4.602;2023-03-25T00:24:46;64306.16;;;10.48;89.57
41636;BME280;27623;51.966;4.602;2023-03-25T00:27:12;64283.22;;;10.41;89.47
41636;BME280;27623;51.966;4.602;2023-03-25T00:29:39;64313.06;;;10.52;88.61
41636;BME280;27623;51.966;4.602;2023-03-25T00:32:05;64313.28;;;10.26;89.90
41636;BME280;27623;51.966;4.602;2023-03-25T00:34:30;64280.91;;;10.29;89.75
41636;BME280;27623;51.966;4.602;2023-03-25T00:36:56;64277.09;;;10.33;88.81
41636;BME280;27623;51.966;4.602;2023-03-25T00:39:21;64285.44;;;10.29;89.34
41636;BME280;27623;51.966;4.602;2023-03-25T00:41:47;64309.59;;;10.47;89.26
41636;BME280;27623;51.966;4.602;2023-03-25T00:44:12;64305.25;;;10.43;88.71
41636;BME280;27623;51.966;4.602;2023-03-25T00:46:38;64302.31;;;10.52;88.53
41636;BME280;27623;51.966;4.602;2023-03-25T00:49:04;64320.88;;;10.48;88.84
41636;BME280;27623;51.966;4.602;2023-03-25T00:51:29;64304.53;;;10.40;88.79
41636;BME280;27623;51.966;4.602;2023-03-25T00:53:58;64292.50;;;10.43;88.63
41636;BME280;27623;51.966;4.602;2023-03-25T00:56:28;64292.91;;;10.33;89.90
41636;BME280;27623;51.966;4.602;2023-03-25T00:58:54;64280.19;;;10.26;89.67
41636;BME280;27623;51.966;4.602;2023-03-25T01:01:22;64250.00;;;10.24;89.67
41636;BME280;27623;51.966;4.602;2023-03-25T01:03:52;64288.16;;;10.39;90.46
41636;BME280;27623;51.966;4.602;2023-03-25T01:06:24;64307.25;;;10.49;89.66
41636;BME280;27623;51.966;4.602;2023-03-25T01:08:54;64301.47;;;10.32;90.00
41636;BME280;27623;51.966;4.602;2023-03-25T01:11:26;64288.72;;;10.39;91.13
41636;BME280;27623;51.966;4.602;2023-03-25T01:13:53;64248.72;;;10.21;92.46
41636;BME280;27623;51.966;4.602;2023-03-25T01:16:19;64268.00;;;10.20;93.51
41636;BME280;27623;51.966;4.602;2023-03-25T01:18:44;64281.81;;;10.35;93.50
41636;BME280;27623;51.966;4.602;2023-03-25T01:21:10;64273.81;;;10.23;95.03
41636;BME280;27623;51.966;4.602;2023-03-25T01:23:35;64226.53;;;10.10;95.48
41636;BME280;27623;51.966;4.602;2023-03-25T01:26:01;64223.81;;;10.07;96.54
41636;BME280;27623;51.966;4.602;2023-03-25T01:28:26;64242.38;;;10.10;96.59
41636;BME280;27623;51.966;4.602;2023-03-25T01:30:59;64254.56;;;10.10;97.45
41636;BME280;27623;51.966;4.602;2023-03-25T01:33:25;64233.81;;;10.12;98.43
41636;BME280;27623;51.966;4.602;2023-03-25T01:35:51;64223.13;;;9.97;99.57
41636;BME280;27623;51.966;4.602;2023-03-25T01:38:19;64253.81;;;10.07;100.00
41636;BME280;27623;51.966;4.602;2023-03-25T01:40:45;64229.69;;;9.96;100.00
41636;BME280;27623;51.966;4.602;2023-03-25T01:43:11;64245.47;;;10.04;100.00
41636;BME280;27623;51.966;4.602;2023-03-25T01:45:37;64212.06;;;9.84;100.00
41636;BME280;27623;51.966;4.602;2023-03-25T01:48:36;64246.94;;;9.95;100.00
41636;BME280;27623;51.966;4.602;2023-03-25T01:51:13;64259.84;;;10.05;100.00
41636;BME280;27623;51.966;4.602;2023-03-25T01:53:40;64243.13;;;9.85;100.00
41636;BME280;27623;51.966;4.602;2023-03-25T01:56:08;64215.50;;;9.83;100.00
41636;BME280;27623;51.966;4.602;2023-03-25T01:58:36;64224.22;;;9.84;100.00
41636;BME280;27623;51.966;4.602;2023-03-25T02:01:02;64240.22;;;9.87;100.00
41636;BME280;27623;51.966;4.602;2023-03-25T02:03:29;64260.94;;;9.92;100.00
41636;BME280;27623;51.966;4.602;2023-03-25T02:06:10;64268.75;;;9.94;100.00
41636;BME280;27623;51.966;4.602;2023-03-25T02:08:39;64238.41;;;9.90;100.00
41636;BME280;27623;51.966;4.602;2023-03-25T02:11:06;64227.13;;;9.89;100.00
41636;BME280;27623;51.966;4.602;2023-03-25T02:13:35;64218.59;;;9.83;100.00
41636;BME280;27623;51.966;4.602;2023-03-25T02:16:19;64239.84;;;10.03;100.00
41636;BME280;27623;51.966;4.602;2023-03-25T02:38:21;64246.94;;;9.88;100.00
41636;BME280;27623;51.966;4.602;2023-03-25T02:46:10;64258.00;;;10.01;100.00
41636;BME280;27623;51.966;4.602;2023-03-25T02:48:55;64250.41;;;9.94;100.00
41636;BME280;27623;51.966;4.602;2023-03-25T02:51:29;64217.34;;;9.80;100.00
41636;BME280;27623;51.966;4.602;2023-03-25T02:53:59;64258.22;;;9.96;100.00
41636;BME280;27623;51.966;4.602;2023-03-25T02:56:25;64229.69;;;9.82;100.00
41636;BME280;27623;51.966;4.602;2023-03-25T02:58:54;64211.50;;;9.84;100.00
41636;BME280;27623;51.966;4.602;2023-03-25T03:01:21;64252.41;;;9.86;100.00
41636;BME280;27623;51.966;4.602;2023-03-25T03:03:53;64237.66;;;10.01;100.00
41636;BME280;27623;51.966;4.602;2023-03-25T03:06:23;64263.84;;;9.90;100.00
41636;BME280;27623;51.966;4.602;2023-03-25T03:16:59;64214.78;;;9.80;100.00
41636;BME280;27623;51.966;4.602;2023-03-25T03:19:35;64242.03;;;9.91;100.00
41636;BME280;27623;51.966;4.602;2023-03-25T03:22:38;64257.84;;;9.91;100.00
41636;BME280;27623;51.966;4.602;2023-03-25T03:25:30;64246.41;;;9.88;100.00
41636;BME280;27623;51.966;4.602;2023-03-25T03:28:06;64220.13;;;9.54;100.00
41636;BME280;27623;51.966;4.602;2023-03-25T03:33:19;64196.28;;;9.62;100.00
41636;BME280;27623;51.966;4.602;2023-03-25T03:38:23;64206.81;;;9.60;100.00
41636;BME280;27623;51.966;4.602;2023-03-25T03:40:54;64207.56;;;9.56;100.00
41636;BME280;27623;51.966;4.602;2023-03-25T03:43:30;64169.25;;;9.47;100.00
41636;BME280;27623;51.966;4.602;2023-03-25T03:46:01;64193.59;;;9.53;100.00
41636;BME280;27623;51.966;4.602;2023-03-25T03:48:34;64182.13;;;9.56;100.00
41636;BME280;27623;51.966;4.602;2023-03-25T03:51:08;64169.63;;;9.38;100.00
41636;BME280;27623;51.966;4.602;2023-03-25T03:53:41;64221.72;;;9.62;100.00
41636;BME280;27623;51.966;4.602;2023-03-25T03:56:20;64193.19;;;9.62;100.00
41636;BME280;27623;51.966;4.602;2023-03-25T03:58:49;64224.44;;;9.58;100.00
41636;BME280;27623;51.966;4.602;2023-03-25T04:04:05;64219.38;;;9.51;100.00
41636;BME280;27623;51.966;4.602;2023-03-25T04:06:38;64227.00;;;9.51;100.00
41636;BME280;27623;51.966;4.602;2023-03-25T04:12:09;64195.94;;;9.50;100.00
41636;BME280;27623;51.966;4.602;2023-03-25T04:14:37;64224.66;;;9.53;100.00
41636;BME280;27623;51.966;4.602;2023-03-25T04:17:06;64222.81;;;9.56;100.00
41636;BME280;27623;51.966;4.602;2023-03-25T04:19:31;64203.91;;;9.62;100.00
41636;BME280;27623;51.966;4.602;2023-03-25T04:21:59;64180.13;;;9.64;100.00
41636;BME280;27623;51.966;4.602;2023-03-25T04:24:28;64166.50;;;9.58;100.00
41636;BME280;27623;51.966;4.602;2023-03-25T04:26:59;64199.03;;;9.51;100.00
41636;BME280;27623;51.966;4.602;2023-03-25T04:29:34;64166.16;;;9.46;100.00
41636;BME280;27623;51.966;4.602;2023-03-25T04:32:00;64170.84;;;9.62;100.00
41636;BME280;27623;51.966;4.602;2023-03-25T04:34:26;64206.28;;;9.67;100.00
41636;BME280;27623;51.966;4.602;2023-03-25T04:36:52;64209.38;;;9.68;100.00
41636;BME280;27623;51.966;4.602;2023-03-25T04:39:19;64227.34;;;9.63;100.00
41636;BME280;27623;51.966;4.602;2023-03-25T04:41:49;64189.78;;;9.49;100.00
41636;BME280;27623;51.966;4.602;2023-03-25T04:44:15;64240.63;;;9.71;100.00
41636;BME280;27623;51.966;4.602;2023-03-25T04:46:41;64189.00;;;9.68;100.00
41636;BME280;27623;51.966;4.602;2023-03-25T04:49:10;64217.72;;;9.71;100.00
41636;BME280;27623;51.966;4.602;2023-03-25T04:51:43;64235.00;;;9.70;100.00
41636;BME280;27623;51.966;4.602;2023-03-25T04:54:09;64205.56;;;9.64;100.00
41636;BME280;27623;51.966;4.602;2023-03-25T04:56:35;64233.91;;;9.76;100.00
41636;BME280;27623;51.966;4.602;2023-03-25T04:59:01;64218.03;;;9.90;100.00
41636;BME280;27623;51.966;4.602;2023-03-25T05:01:28;64201.72;;;9.75;100.00
41636;BME280;27623;51.966;4.602;2023-03-25T05:04:02;64218.81;;;9.72;100.00
41636;BME280;27623;51.966;4.602;2023-03-25T05:06:35;64217.38;;;9.58;100.00
41636;BME280;27623;51.966;4.602;2023-03-25T05:09:06;64236.06;;;9.64;100.00
41636;BME280;27623;51.966;4.602;2023-03-25T05:11:33;64184.28;;;9.58;100.00
41636;BME280;27623;51.966;4.602;2023-03-25T05:13:59;64223.91;;;9.57;100.00
41636;BME280;27623;51.966;4.602;2023-03-25T05:16:24;64188.69;;;9.55;100.00
41636;BME280;27623;51.966;4.602;2023-03-25T05:18:51;64208.09;;;9.64;100.00
41636;BME280;27623;51.966;4.602;2023-03-25T05:21:18;64214.47;;;9.53;100.00
41636;BME280;27623;51.966;4.602;2023-03-25T05:23:44;64185.75;;;9.57;100.00
41636;BME280;27623;51.966;4.602;2023-03-25T05:26:10;64200.47;;;9.64;100.00
41636;BME280;27623;51.966;4.602;2023-03-25T05:28:39;64222.81;;;9.71;100.00
41636;BME280;27623;51.966;4.602;2023-03-25T05:31:05;64220.81;;;9.71;100.00
41636;BME280;27623;51.966;4.602;2023-03-25T05:33:35;64223.00;;;9.59;100.00
41636;BME280;27623;51.966;4.602;2023-03-25T05:36:02;64205.91;;;9.62;100.00
41636;BME280;27623;51.966;4.602;2023-03-25T05:38:28;64192.84;;;9.57;100.00
41636;BME280;27623;51.966;4.602;2023-03-25T05:40:53;64187.22;;;9.56;100.00
41636;BME280;27623;51.966;4.602;2023-03-25T05:43:20;64216.63;;;9.70;100.00
41636;BME280;27623;51.966;4.602;2023-03-25T05:45:47;64228.09;;;9.66;100.00
41636;BME280;27623;51.966;4.602;2023-03-25T05:48:13;64194.47;;;9.65;100.00
41636;BME280;27623;51.966;4.602;2023-03-25T05:50:39;64198.31;;;9.55;100.00
41636;BME280;27623;51.966;4.602;2023-03-25T05:53:12;64187.94;;;9.59;100.00
41636;BME280;27623;51.966;4.602;2023-03-25T05:55:38;64196.50;;;9.51;100.00
41636;BME280;27623;51.966;4.602;2023-03-25T05:58:03;64191.03;;;9.60;100.00
41636;BME280;27623;51.966;4.602;2023-03-25T06:00:29;64191.59;;;9.53;100.00
41636;BME280;27623;51.966;4.602;2023-03-25T06:02:55;64204.09;;;9.58;100.00
41636;BME280;27623;51.966;4.602;2023-03-25T06:05:23;64190.28;;;9.57;100.00
41636;BME280;27623;51.966;4.602;2023-03-25T06:07:50;64197.75;;;9.61;100.00
41636;BME280;27623;51.966;4.602;2023-03-25T06:10:20;64197.75;;;9.54;100.00
41636;BME280;27623;51.966;4.602;2023-03-25T06:12:47;64230.09;;;9.58;100.00
41636;BME280;27623;51.966;4.602;2023-03-25T06:15:15;64206.66;;;9.58;100.00
41636;BME280;27623;51.966;4.602;2023-03-25T06:17:42;64195.41;;;9.50;100.00
41636;BME280;27623;51.966;4.602;2023-03-25T06:20:11;64209.72;;;9.58;100.00
41636;BME280;27623;51.966;4.602;2023-03-25T06:22:41;64246.63;;;9.55;100.00
41636;BME280;27623;51.966;4.602;2023-03-25T06:25:11;64151.63;;;9.49;100.00
41636;BME280;27623;51.966;4.602;2023-03-25T06:27:36;64143.63;;;9.51;100.00
41636;BME280;27623;51.966;4.602;2023-03-25T06:30:11;64238.06;;;9.56;100.00
41636;BME280;27623;51.966;4.602;2023-03-25T06:32:40;64222.44;;;9.58;100.00
41636;BME280;27623;51.966;4.602;2023-03-25T06:35:08;64201.41;;;9.55;100.00
41636;BME280;27623;51.966;4.602;2023-03-25T06:37:37;64214.28;;;9.58;100.00
41636;BME280;27623;51.966;4.602;2023-03-25T06:40:03;64230.09;;;9.58;100.00
41636;BME280;27623;51.966;4.602;2023-03-25T06:42:30;64235.91;;;9.69;100.00
41636;BME280;27623;51.966;4.602;2023-03-25T06:44:56;64189.94;;;9.59;100.00
41636;BME280;27623;51.966;4.602;2023-03-25T06:47:21;64197.94;;;9.50;100.00
41636;BME280;27623;51.966;4.602;2023-03-25T06:49:47;64229.56;;;9.51;100.00
41636;BME280;27623;51.966;4.602;2023-03-25T06:52:12;64215.94;;;9.52;100.00
41636;BME280;27623;51.966;4.602;2023-03-25T06:54:40;64195.91;;;9.64;100.00
41636;BME280;27623;51.966;4.602;2023-03-25T06:57:06;64191.19;;;9.62;100.00
41636;BME280;27623;51.966;4.602;2023-03-25T06:59:31;64219.19;;;9.62;100.00
41636;BME280;27623;51.966;4.602;2023-03-25T07:01:57;64219.72;;;9.63;100.00
41636;BME280;27623;51.966;4.602;2023-03-25T07:04:23;64217.53;;;9.61;100.00
41636;BME280;27623;51.966;4.602;2023-03-25T07:06:48;64239.91;;;9.68;100.00
41636;BME280;27623;51.966;4.602;2023-03-25T07:09:14;64239.69;;;9.79;100.00
41636;BME280;27623;51.966;4.602;2023-03-25T07:11:40;64209.16;;;9.79;100.00
41636;BME280;27623;51.966;4.602;2023-03-25T07:14:05;64266.41;;;9.90;100.00
41636;BME280;27623;51.966;4.602;2023-03-25T07:16:31;64275.13;;;9.91;100.00
41636;BME280;27623;51.966;4.602;2023-03-25T07:18:56;64256.94;;;9.86;100.00
41636;BME280;27623;51.966;4.602;2023-03-25T07:21:23;64240.41;;;9.82;100.00
41636;BME280;27623;51.966;4.602;2023-03-25T07:23:49;64194.63;;;9.75;100.00
41636;BME280;27623;51.966;4.602;2023-03-25T07:26:15;64249.13;;;9.83;100.00
41636;BME280;27623;51.966;4.602;2023-03-25T07:28:40;64240.22;;;9.87;100.00
41636;BME280;27623;51.966;4.602;2023-03-25T07:31:11;64282.75;;;9.98;100.00
41636;BME280;27623;51.966;4.602;2023-03-25T07:33:37;64201.34;;;9.77;100.00
41636;BME280;27623;51.966;4.602;2023-03-25T07:36:04;64259.88;;;9.84;100.00
41636;BME280;27623;51.966;4.602;2023-03-25T07:38:31;64244.78;;;9.93;100.00
41636;BME280;27623;51.966;4.602;2023-03-25T07:40:59;64251.69;;;9.97;100.00
41636;BME280;27623;51.966;4.602;2023-03-25T07:43:28;64266.59;;;9.92;99.35
41636;BME280;27623;51.966;4.602;2023-03-25T07:45:54;64240.94;;;9.90;99.45
41636;BME280;27623;51.966;4.602;2023-03-25T07:48:19;64248.59;;;9.83;99.96
41636;BME280;27623;51.966;4.602;2023-03-25T07:50:49;64226.03;;;9.88;100.00
41636;BME280;27623;51.966;4.602;2023-03-25T07:53:18;64247.69;;;9.91;99.92
41636;BME280;27623;51.966;4.602;2023-03-25T07:55:44;64191.88;;;9.87;100.00
41636;BME280;27623;51.966;4.602;2023-03-25T07:58:10;64255.28;;;9.98;100.00
41636;BME280;27623;51.966;4.602;2023-03-25T08:00:36;64236.78;;;9.95;100.00
41636;BME280;27623;51.966;4.602;2023-03-25T08:03:02;64265.84;;;10.04;100.00
41636;BME280;27623;51.966;4.602;2023-03-25T08:05:28;64286.19;;;10.11;100.00
41636;BME280;27623;51.966;4.602;2023-03-25T08:07:54;64288.38;;;10.06;100.00
41636;BME280;27623;51.966;4.602;2023-03-25T08:10:20;64246.19;;;9.99;100.00
41636;BME280;27623;51.966;4.602;2023-03-25T08:12:46;64267.09;;;10.07;100.00
41636;BME280;27623;51.966;4.602;2023-03-25T08:15:12;64230.00;;;10.01;100.00
41636;BME280;27623;51.966;4.602;2023-03-25T08:17:38;64270.19;;;10.00;100.00
41636;BME280;27623;51.966;4.602;2023-03-25T08:20:05;64280.56;;;10.03;100.00
41636;BME280;27623;51.966;4.602;2023-03-25T08:22:33;64254.75;;;10.05;100.00
41636;BME280;27623;51.966;4.602;2023-03-25T08:25:00;64257.81;;;10.13;100.00
41636;BME280;27623;51.966;4.602;2023-03-25T08:27:25;64289.47;;;10.14;100.00
41636;BME280;27623;51.966;4.602;2023-03-25T08:29:51;64289.66;;;10.16;100.00
41636;BME280;27623;51.966;4.602;2023-03-25T08:32:21;64292.38;;;10.33;100.00
41636;BME280;27623;51.966;4.602;2023-03-25T08:34:47;64261.25;;;10.25;100.00
41636;BME280;27623;51.966;4.602;2023-03-25T08:37:12;64287.44;;;10.28;98.64
41636;BME280;27623;51.966;4.602;2023-03-25T08:39:39;64284.38;;;10.28;99.05
41636;BME280;27623;51.966;4.602;2023-03-25T08:42:07;64315.47;;;10.28;98.21
41636;BME280;27623;51.966;4.602;2023-03-25T08:44:35;64279.25;;;10.35;98.58
41636;BME280;27623;51.966;4.602;2023-03-25T08:47:01;64285.28;;;10.26;98.40
41636;BME280;27623;51.966;4.602;2023-03-25T08:49:26;64312.19;;;10.32;98.52
41636;BME280;27623;51.966;4.602;2023-03-25T08:51:52;64304.72;;;10.35;99.30
41636;BME280;27623;51.966;4.602;2023-03-25T08:54:20;64268.34;;;10.39;100.00
41636;BME280;27623;51.966;4.602;2023-03-25T08:56:45;64292.91;;;10.33;98.96
41636;BME280;27623;51.966;4.602;2023-03-25T08:59:10;64305.06;;;10.47;97.82
41636;BME280;27623;51.966;4.602;2023-03-25T09:01:37;64306.72;;;10.42;97.52
41636;BME280;27623;51.966;4.602;2023-03-25T09:04:02;64302.69;;;10.43;96.90
41636;BME280;27623;51.966;4.602;2023-03-25T09:06:27;64323.44;;;10.41;95.11
41636;BME280;27623;51.966;4.602;2023-03-25T09:08:53;64328.53;;;10.48;95.00
41636;BME280;27623;51.966;4.602;2023-03-25T09:11:20;64281.22;;;10.49;95.85
41636;BME280;27623;51.966;4.602;2023-03-25T09:13:45;64324.16;;;10.58;94.28
41636;BME280;27623;51.966;4.602;2023-03-25T09:16:13;64333.06;;;10.54;94.03
41636;BME280;27623;51.966;4.602;2023-03-25T09:18:38;64335.81;;;10.57;93.48
41636;BME280;27623;51.966;4.602;2023-03-25T09:21:04;64326.13;;;10.64;95.25
41636;BME280;27623;51.966;4.602;2023-03-25T09:23:32;64348.16;;;10.73;95.47
41636;BME280;27623;51.966;4.602;2023-03-25T09:26:01;64328.50;;;10.69;93.56
41636;BME280;27623;51.966;4.602;2023-03-25T09:28:29;64366.91;;;10.64;93.84
41636;BME280;27623;51.966;4.602;2023-03-25T09:30:55;64340.88;;;10.71;93.09
41636;BME280;27623;51.966;4.602;2023-03-25T09:33:21;64355.94;;;10.83;93.01
41636;BME280;27623;51.966;4.602;2023-03-25T09:35:48;64347.00;;;11.00;92.93
41636;BME280;27623;51.966;4.602;2023-03-25T09:38:14;64353.88;;;11.05;89.56
41636;BME280;27623;51.966;4.602;2023-03-25T09:40:43;64368.84;;;10.99;89.91
41636;BME280;27623;51.966;4.602;2023-03-25T09:45:44;64340.81;;;10.99;88.52
41636;BME280;27623;51.966;4.602;2023-03-25T09:51:13;64317.31;;;10.99;89.30
41636;BME280;27623;51.966;4.602;2023-03-25T09:56:20;64371.16;;;11.18;88.06
41636;BME280;27623;51.966;4.602;2023-03-25T09:59:17;64397.00;;;11.30;87.33
41636;BME280;27623;51.966;4.602;2023-03-25T10:01:49;64395.00;;;11.31;85.14
41636;BME280;27623;51.966;4.602;2023-03-25T10:24:07;64428.31;;;11.41;85.68
41636;BME280;27623;51.966;4.602;2023-03-25T10:26:44;64429.44;;;11.34;84.38
41636;BME280;27623;51.966;4.602;2023-03-25T10:29:13;64418.13;;;11.33;83.45
41636;BME280;27623;51.966;4.602;2023-03-25T10:31:52;64421.03;;;11.31;83.24
41636;BME280;27623;51.966;4.602;2023-03-25T10:34:20;64412.84;;;11.31;83.87
41636;BME280;27623;51.966;4.602;2023-03-25T10:36:52;64379.69;;;11.24;84.15
41636;BME280;27623;51.966;4.602;2023-03-25T10:39:23;64425.78;;;11.33;84.29
41636;BME280;27623;51.966;4.602;2023-03-25T10:41:56;64428.34;;;11.33;83.85
41636;BME280;27623;51.966;4.602;2023-03-25T10:44:25;64415.19;;;11.43;83.79
41636;BME280;27623;51.966;4.602;2023-03-25T10:46:56;64417.53;;;11.47;83.82
41636;BME280;27623;51.966;4.602;2023-03-25T10:49:26;64411.84;;;11.61;83.38
41636;BME280;27623;51.966;4.602;2023-03-25T10:51:53;64460.88;;;11.68;84.84
41636;BME280;27623;51.966;4.602;2023-03-25T10:54:23;64411.81;;;11.68;84.67
41636;BME280;27623;51.966;4.602;2023-03-25T10:56:52;64406.22;;;11.53;87.43
41636;BME280;27623;51.966;4.602;2023-03-25T10:59:42;64429.53;;;11.58;88.49
41636;BME280;27623;51.966;4.602;2023-03-25T11:02:22;64396.78;;;11.42;87.68
41636;BME280;27623;51.966;4.602;2023-03-25T11:04:56;64396.56;;;11.54;86.72
41636;BME280;27623;51.966;4.602;2023-03-25T11:07:34;64454.16;;;11.60;85.10
41636;BME280;27623;51.966;4.602;2023-03-25T11:12:39;64424.47;;;11.51;84.98
41636;BME280;27623;51.966;4.602;2023-03-25T11:15:29;64419.53;;;11.54;83.23
41636;BME280;27623;51.966;4.602;2023-03-25T11:18:01;64466.38;;;11.52;82.93
41636;BME280;27623;51.966;4.602;2023-03-25T11:20:34;64470.34;;;11.73;82.50
41636;BME280;27623;51.966;4.602;2023-03-25T11:23:07;64453.03;;;11.66;81.34
41636;BME280;27623;51.966;4.602;2023-03-25T11:25:39;64438.44;;;11.69;80.66
41636;BME280;27623;51.966;4.602;2023-03-25T11:28:22;64407.69;;;11.45;80.98
41636;BME280;27623;51.966;4.602;2023-03-25T11:33:38;64425.03;;;11.38;84.36
41636;BME280;27623;51.966;4.602;2023-03-25T11:36:20;64411.56;;;11.34;82.88
41636;BME280;27623;51.966;4.602;2023-03-25T11:38:51;64396.44;;;11.37;83.70
41636;BME280;27623;51.966;4.602;2023-03-25T11:41:18;64414.97;;;11.54;83.58
41636;BME280;27623;51.966;4.602;2023-03-25T11:43:47;64451.38;;;11.79;82.98
41636;BME280;27623;51.966;4.602;2023-03-25T11:46:15;64473.78;;;11.92;81.57
41636;BME280;27623;51.966;4.602;2023-03-25T11:48:42;64462.28;;;11.89;81.25
41636;BME280;27623;51.966;4.602;2023-03-25T11:51:27;64446.25;;;11.86;80.40
41636;BME280;27623;51.966;4.602;2023-03-25T11:54:07;64440.19;;;11.94;81.64
41636;BME280;27623;51.966;4.602;2023-03-25T11:56:40;64474.84;;;12.00;79.65
41636;BME280;27623;51.966;4.602;2023-03-25T11:59:09;64459.53;;;11.93;78.45
41636;BME280;27623;51.966;4.602;2023-03-25T12:01:45;64483.81;;;11.90;77.58
41636;BME280;27623;51.966;4.602;2023-03-25T12:04:20;64469.06;;;11.83;77.97
41636;BME280;27623;51.966;4.602;2023-03-25T12:06:58;64489.47;;;11.90;79.15
41636;BME280;27623;51.966;4.602;2023-03-25T12:09:29;64525.16;;;12.12;80.29
41636;BME280;27623;51.966;4.602;2023-03-25T12:12:57;64511.56;;;12.37;78.89
41636;BME280;27623;51.966;4.602;2023-03-25T12:25:38;64585.63;;;12.65;74.88
41636;BME280;27623;51.966;4.602;2023-03-25T12:42:32;64578.91;;;13.02;76.02
41636;BME280;27623;51.966;4.602;2023-03-25T12:58:56;64597.56;;;12.98;72.61
41636;BME280;27623;51.966;4.602;2023-03-25T13:02:00;64519.34;;;12.61;74.79
41636;BME280;27623;51.966;4.602;2023-03-25T13:07:10;64475.41;;;12.01;79.37
41636;BME280;27623;51.966;4.602;2023-03-25T13:12:29;64482.34;;;11.98;88.48
41636;BME280;27623;51.966;4.602;2023-03-25T13:17:34;64451.69;;;11.98;84.32
41636;BME280;27623;51.966;4.602;2023-03-25T13:20:03;64478.63;;;12.11;83.27
41636;BME280;27623;51.966;4.602;2023-03-25T13:22:38;64507.66;;;12.10;83.46
41636;BME280;27623;51.966;4.602;2023-03-25T13:25:06;64471.31;;;12.23;81.49
41636;BME280;27623;51.966;4.602;2023-03-25T13:27:40;64514.16;;;12.30;79.74
41636;BME280;27623;51.966;4.602;2023-03-25T13:30:16;64497.59;;;12.12;79.33
41636;BME280;27623;51.966;4.602;2023-03-25T13:32:48;64489.81;;;12.02;82.48
41636;BME280;27623;51.966;4.602;2023-03-25T13:35:19;64501.81;;;12.07;86.20
41636;BME280;27623;51.966;4.602;2023-03-25T13:37:53;64447.84;;;12.01;92.14
41636;BME280;27623;51.966;4.602;2023-03-25T13:40:29;64414.03;;;11.63;95.33
41636;BME280;27623;51.966;4.602;2023-03-25T13:46:04;64383.69;;;11.37;93.60
41636;BME280;27623;51.966;4.602;2023-03-25T13:48:39;64397.09;;;11.61;93.70
41636;BME280;27623;51.966;4.602;2023-03-25T13:51:06;64429.38;;;11.56;92.75
41636;BME280;27623;51.966;4.602;2023-03-25T13:54:24;64403.66;;;11.60;91.81
41636;BME280;27623;51.966;4.602;2023-03-25T14:00:19;64567.22;;;12.96;83.23
41636;BME280;27623;51.966;4.602;2023-03-25T14:13:19;64662.94;;;13.63;74.48
41636;BME280;27623;51.966;4.602;2023-03-25T14:15:58;64666.97;;;13.62;74.36
41636;BME280;27623;51.966;4.602;2023-03-25T14:18:28;64666.50;;;13.48;74.07
41636;BME280;27623;51.966;4.602;2023-03-25T14:21:10;64707.59;;;14.02;72.54
41636;BME280;27623;51.966;4.602;2023-03-25T14:23:37;64691.31;;;14.04;72.22
41636;BME280;27623;51.966;4.602;2023-03-25T14:26:07;64752.47;;;14.44;70.35
41636;BME280;27623;51.966;4.602;2023-03-25T14:28:36;64727.91;;;14.07;69.02
41636;BME280;27623;51.966;4.602;2023-03-25T14:31:30;64739.88;;;13.87;69.83
41636;BME280;27623;51.966;4.602;2023-03-25T14:44:48;64607.25;;;12.97;72.95
41636;BME280;27623;51.966;4.602;2023-03-25T14:52:39;64528.31;;;12.57;73.91
41636;BME280;27623;51.966;4.602;2023-03-25T14:55:09;64558.03;;;12.66;74.74
41636;BME280;27623;51.966;4.602;2023-03-25T14:57:42;64625.50;;;12.95;75.34
41636;BME280;27623;51.966;4.602;2023-03-25T15:00:15;64576.41;;;12.88;74.55
41636;BME280;27623;51.966;4.602;2023-03-25T15:02:50;64543.56;;;12.71;74.92
41636;BME280;27623;51.966;4.602;2023-03-25T15:05:28;64565.31;;;12.75;74.34
41636;BME280;27623;51.966;4.602;2023-03-25T15:08:09;64552.00;;;12.67;75.00
41636;BME280;27623;51.966;4.602;2023-03-25T15:18:11;64551.50;;;12.53;81.55
41636;BME280;27623;51.966;4.602;2023-03-25T15:20:39;64514.13;;;12.37;83.80
41636;BME280;27623;51.966;4.602;2023-03-25T15:26:00;64534.75;;;12.39;83.61
41636;BME280;27623;51.966;4.602;2023-03-25T15:56:00;64460.00;;;12.15;84.28
41636;BME280;27623;51.966;4.602;2023-03-25T16:01:20;64460.97;;;11.99;81.07
41636;BME280;27623;51.966;4.602;2023-03-25T16:06:44;64472.84;;;12.01;81.89
41636;BME280;27623;51.966;4.602;2023-03-25T16:09:16;64478.69;;;11.97;81.49
41636;BME280;27623;51.966;4.602;2023-03-25T16:11:43;64451.13;;;12.04;82.21
41636;BME280;27623;51.966;4.602;2023-03-25T16:14:13;64507.31;;;12.04;82.21
41636;BME280;27623;51.966;4.602;2023-03-25T16:16:52;64465.19;;;12.01;81.59
41636;BME280;27623;51.966;4.602;2023-03-25T16:19:24;64428.00;;;11.88;81.99
41636;BME280;27623;51.966;4.602;2023-03-25T16:21:52;64455.88;;;11.99;81.05
41636;BME280;27623;51.966;4.602;2023-03-25T16:24:25;64452.81;;;11.85;81.98
41636;BME280;27623;51.966;4.602;2023-03-25T16:26:54;64446.06;;;11.90;83.47
41636;BME280;27623;51.966;4.602;2023-03-25T16:29:22;64500.94;;;12.01;83.90
41636;BME280;27623;51.966;4.602;2023-03-25T16:31:59;64435.47;;;11.92;84.01
41636;BME280;27623;51.966;4.602;2023-03-25T16:34:27;64447.19;;;11.77;83.68